Time;durP1;ratioP1;P1;durP2;ratioP2;P2;SDS_P1;SDS_P2;PMS_P1;PMS_P2;Temp;Humidity;BMP_temperature;BMP_pressure;BME280_temperature;BME280_humidity;BME280_pressure;Samples;Min_cycle;Max_cycle;Signal;HPM_P1;HPM_P2
2023/06/17 00:00:47;;;;;;;26.77;21.52;;;17.50;99.90;;;;;;5010784;28;20050;-50
2023/06/17 00:03:13;;;;;;;29.80;21.58;;;17.50;99.90;;;;;;5009848;28;20510;-50
2023/06/17 00:05:41;;;;;;;29.73;22.20;;;17.50;99.90;;;;;;5010882;28;20128;-53
2023/06/17 00:08:09;;;;;;;31.63;22.08;;;17.50;99.90;;;;;;5011177;28;20115;-56
2023/06/17 00:10:36;;;;;;;28.55;22.10;;;17.50;99.90;;;;;;4980599;28;20050;-53
2023/06/17 00:13:03;;;;;;;31.00;22.25;;;17.50;99.90;;;;;;5008640;28;20084;-54
2023/06/17 00:15:32;;;;;;;30.20;20.98;;;17.50;99.90;;;;;;5011151;28;20479;-54
2023/06/17 00:18:03;;;;;;;28.55;23.20;;;17.50;99.90;;;;;;5010770;28;20072;-54
2023/06/17 00:20:30;;;;;;;24.70;19.75;;;17.50;99.90;;;;;;5010918;28;20476;-51
2023/06/17 00:22:57;;;;;;;26.45;20.33;;;17.40;99.90;;;;;;5006884;28;20068;-53
2023/06/17 00:25:24;;;;;;;31.08;20.92;;;17.40;99.90;;;;;;5010713;28;20045;-53
2023/06/17 00:27:51;;;;;;;28.27;21.75;;;17.40;99.90;;;;;;5010090;28;20489;-52
2023/06/17 00:30:17;;;;;;;26.77;20.63;;;17.40;99.90;;;;;;5009350;28;20053;-51
2023/06/17 00:32:45;;;;;;;33.78;19.98;;;17.40;99.90;;;;;;5004730;28;20043;-55
2023/06/17 00:35:12;;;;;;;23.40;20.58;;;17.40;99.90;;;;;;4660857;28;10000004;-50
2023/06/17 00:37:38;;;;;;;26.45;21.02;;;17.40;99.90;;;;;;5010621;28;20046;-51
2023/06/17 00:40:09;;;;;;;29.00;21.45;;;17.30;99.90;;;;;;5007483;28;20489;-55
2023/06/17 00:42:36;;;;;;;29.27;21.77;;;17.20;99.90;;;;;;5010503;28;20050;-53
2023/06/17 00:45:04;;;;;;;30.50;22.65;;;17.10;99.90;;;;;;5010327;28;20379;-55
2023/06/17 00:47:31;;;;;;;29.45;20.75;;;17.10;99.90;;;;;;5010357;28;20112;-55
2023/06/17 00:49:57;;;;;;;26.60;21.80;;;17.00;99.90;;;;;;4996955;28;20084;-55
2023/06/17 00:52:24;;;;;;;30.98;22.17;;;17.00;99.90;;;;;;5009483;28;20081;-55
2023/06/17 00:55:11;;;;;;;28.15;20.30;;;16.90;99.90;;;;;;4996080;28;20048;-52
2023/06/17 00:57:38;;;;;;;28.13;20.85;;;16.90;99.90;;;;;;5006811;28;20096;-53
2023/06/17 01:00:09;;;;;;;29.10;22.77;;;16.80;99.90;;;;;;5010157;28;20519;-52
2023/06/17 01:02:40;;;;;;;28.02;21.73;;;16.80;99.90;;;;;;5008067;28;20096;-52
2023/06/17 01:05:11;;;;;;;28.77;22.60;;;16.80;99.90;;;;;;5010869;28;20103;-55
2023/06/17 01:07:47;;;;;;;30.58;21.35;;;16.80;99.90;;;;;;5011501;28;20045;-53
2023/06/17 01:10:24;;;;;;;28.98;20.52;;;16.80;99.90;;;;;;5015855;28;20049;-50
2023/06/17 01:12:51;;;;;;;29.67;22.02;;;16.80;99.90;;;;;;5009380;28;20052;-53
2023/06/17 01:15:18;;;;;;;29.77;22.08;;;16.70;99.90;;;;;;4973565;28;20050;-53
2023/06/17 01:17:46;;;;;;;29.27;20.35;;;16.70;99.90;;;;;;5011512;28;20390;-53
2023/06/17 01:20:13;;;;;;;32.83;22.20;;;16.70;99.90;;;;;;5006217;28;20481;-54
2023/06/17 01:22:40;;;;;;;28.52;21.00;;;16.60;99.90;;;;;;5009899;28;20085;-53
2023/06/17 01:25:08;;;;;;;28.20;20.98;;;16.60;99.90;;;;;;5009902;28;20068;-54
2023/06/17 01:27:35;;;;;;;22.60;18.60;;;16.60;99.90;;;;;;4997911;28;20560;-53
2023/06/17 01:30:02;;;;;;;23.98;20.02;;;16.60;99.90;;;;;;5009359;28;20117;-52
2023/06/17 01:32:29;;;;;;;28.15;19.45;;;16.60;99.90;;;;;;5010039;28;20053;-53
2023/06/17 01:35:00;;;;;;;25.50;20.40;;;16.60;99.90;;;;;;5009462;28;20125;-54
2023/06/17 01:37:48;;;;;;;26.13;19.88;;;16.60;99.90;;;;;;4972803;28;20049;-53
2023/06/17 01:40:18;;;;;;;33.95;19.90;;;16.60;99.90;;;;;;5008567;28;20045;-52
2023/06/17 01:42:47;;;;;;;22.55;18.88;;;16.60;99.90;;;;;;5009336;28;20433;-55
2023/06/17 01:45:14;;;;;;;28.02;20.30;;;16.70;99.90;;;;;;4996420;28;20120;-53
2023/06/17 01:47:41;;;;;;;24.45;17.83;;;16.60;99.90;;;;;;5006969;28;20507;-56
2023/06/17 01:50:08;;;;;;;21.05;18.38;;;16.50;99.90;;;;;;5008806;28;20050;-53
2023/06/17 01:52:35;;;;;;;24.95;18.77;;;16.40;99.90;;;;;;5009350;28;20050;-54
2023/06/17 01:55:03;;;;;;;23.85;17.80;;;16.30;99.90;;;;;;5008727;28;20053;-51
2023/06/17 01:57:30;;;;;;;23.95;17.45;;;16.20;99.90;;;;;;4996661;28;20575;-54
2023/06/17 01:59:57;;;;;;;21.73;17.67;;;16.20;99.90;;;;;;5008891;28;20052;-55
2023/06/17 02:02:24;;;;;;;23.65;16.05;;;16.20;99.90;;;;;;5009042;28;20054;-51
2023/06/17 02:04:51;;;;;;;24.92;17.30;;;16.20;99.90;;;;;;4997494;28;20520;-51
2023/06/17 02:07:18;;;;;;;22.80;17.45;;;16.20;99.90;;;;;;4997603;28;20100;-52
2023/06/17 02:09:45;;;;;;;22.00;15.05;;;16.10;99.90;;;;;;5008122;28;20054;-51
2023/06/17 02:12:12;;;;;;;25.23;14.88;;;16.10;99.90;;;;;;5009047;28;20054;-53
2023/06/17 02:14:39;;;;;;;18.60;13.13;;;16.10;99.90;;;;;;5008481;28;20493;-52
2023/06/17 02:17:08;;;;;;;18.67;14.05;;;16.20;99.90;;;;;;5008820;28;20050;-53
2023/06/17 02:19:35;;;;;;;18.30;14.60;;;16.20;99.90;;;;;;5008253;28;20188;-55
2023/06/17 02:22:02;;;;;;;20.30;14.35;;;16.20;99.90;;;;;;5008273;28;20049;-54
2023/06/17 02:24:29;;;;;;;19.55;13.38;;;16.10;99.90;;;;;;5008384;28;20505;-51
2023/06/17 02:26:56;;;;;;;20.35;15.02;;;16.10;99.90;;;;;;5008383;28;20048;-53
2023/06/17 02:29:24;;;;;;;20.70;14.80;;;16.00;99.90;;;;;;5008610;28;20076;-54
2023/06/17 02:31:51;;;;;;;22.63;15.30;;;16.00;99.90;;;;;;5007802;28;20056;-53
2023/06/17 02:34:19;;;;;;;25.23;16.30;;;15.90;99.90;;;;;;5008420;28;20050;-52
2023/06/17 02:36:46;;;;;;;20.77;15.60;;;15.90;99.90;;;;;;5008230;28;20049;-53
2023/06/17 02:39:13;;;;;;;21.08;15.93;;;15.90;99.90;;;;;;5008488;28;20053;-52
2023/06/17 02:41:41;;;;;;;18.50;15.00;;;15.90;99.90;;;;;;5008185;28;20049;-52
2023/06/17 02:44:08;;;;;;;20.40;14.13;;;15.90;99.90;;;;;;5007993;28;20046;-52
2023/06/17 02:46:34;;;;;;;23.17;14.20;;;15.90;99.90;;;;;;5008325;28;20058;-54
2023/06/17 02:49:01;;;;;;;15.63;12.60;;;15.80;99.90;;;;;;5008193;28;20053;-54
2023/06/17 02:51:29;;;;;;;19.00;15.68;;;15.70;99.90;;;;;;5007534;28;20054;-52
2023/06/17 02:53:56;;;;;;;20.42;14.43;;;15.60;99.90;;;;;;5007895;28;20088;-56
2023/06/17 02:56:22;;;;;;;19.88;13.73;;;15.70;99.90;;;;;;5006749;28;20116;-51
2023/06/17 02:58:50;;;;;;;23.02;14.68;;;15.70;99.90;;;;;;5008157;28;20061;-53
2023/06/17 03:01:18;;;;;;;16.95;13.88;;;15.60;99.90;;;;;;5007407;28;20085;-52
2023/06/17 03:03:45;;;;;;;22.15;13.57;;;15.60;99.90;;;;;;5008086;28;20065;-54
2023/06/17 03:06:13;;;;;;;17.80;12.63;;;15.50;99.90;;;;;;5008188;28;20119;-54
2023/06/17 03:08:40;;;;;;;15.25;12.52;;;15.50;99.90;;;;;;5008352;28;20050;-53
2023/06/17 03:11:08;;;;;;;15.05;11.93;;;15.60;99.90;;;;;;5007149;28;21226;-53
2023/06/17 03:13:34;;;;;;;15.20;11.35;;;15.50;99.90;;;;;;5008352;28;20049;-53
2023/06/17 03:16:02;;;;;;;14.55;10.68;;;15.40;99.90;;;;;;5007529;28;20060;-50
2023/06/17 03:18:30;;;;;;;16.85;11.30;;;15.40;99.90;;;;;;5006945;28;20046;-52
2023/06/17 03:20:56;;;;;;;16.88;11.95;;;15.30;99.90;;;;;;5007266;28;20046;-53
2023/06/17 03:23:24;;;;;;;13.38;11.02;;;15.30;99.90;;;;;;5005694;28;20055;-51
2023/06/17 03:25:51;;;;;;;20.35;11.18;;;15.20;99.90;;;;;;5007862;28;20072;-53
2023/06/17 03:28:18;;;;;;;18.13;10.88;;;15.20;99.90;;;;;;5007614;28;20249;-51
2023/06/17 03:30:45;;;;;;;10.88;8.73;;;15.20;99.90;;;;;;5004059;28;20053;-50
2023/06/17 03:33:13;;;;;;;12.63;9.82;;;15.20;99.90;;;;;;5001879;28;20042;-51
2023/06/17 03:35:40;;;;;;;18.00;10.63;;;15.20;99.90;;;;;;5007572;28;20061;-48
2023/06/17 03:38:07;;;;;;;15.60;10.40;;;15.10;99.90;;;;;;5007348;28;20061;-51
2023/06/17 03:40:34;;;;;;;14.65;9.73;;;15.10;99.90;;;;;;5007208;28;20050;-52
2023/06/17 03:43:01;;;;;;;14.23;9.55;;;15.00;99.90;;;;;;5005853;28;20053;-54
2023/06/17 03:45:30;;;;;;;15.13;8.48;;;15.00;99.90;;;;;;5006752;28;20058;-51
2023/06/17 03:47:58;;;;;;;15.73;9.25;;;15.00;99.90;;;;;;5006772;28;20050;-52
2023/06/17 03:50:25;;;;;;;12.32;8.20;;;15.00;99.90;;;;;;5007146;28;20054;-49
2023/06/17 03:52:51;;;;;;;10.15;7.75;;;15.00;99.90;;;;;;5007151;28;20061;-49
2023/06/17 03:55:18;;;;;;;10.48;8.10;;;14.90;99.90;;;;;;5007408;28;20512;-53
2023/06/17 03:57:45;;;;;;;12.68;7.80;;;14.90;99.90;;;;;;4996281;28;20132;-53
2023/06/17 04:00:13;;;;;;;13.93;7.60;;;15.00;99.90;;;;;;5007017;28;20052;-51
2023/06/17 04:02:44;;;;;;;17.60;7.60;;;15.00;99.90;;;;;;5006814;28;20103;-50
2023/06/17 04:05:12;;;;;;;11.48;7.40;;;15.10;99.90;;;;;;5003872;28;20042;-52
2023/06/17 04:07:39;;;;;;;11.73;7.13;;;15.10;99.90;;;;;;5007097;28;20046;-50
2023/06/17 04:10:08;;;;;;;14.20;7.53;;;15.10;99.90;;;;;;5006199;28;20441;-53
2023/06/17 04:12:38;;;;;;;10.65;7.10;;;15.10;99.90;;;;;;5004041;28;20072;-52
2023/06/17 04:15:06;;;;;;;9.63;6.65;;;15.10;99.90;;;;;;5000279;28;20054;-54
2023/06/17 04:17:36;;;;;;;9.85;7.55;;;15.10;99.90;;;;;;5007349;28;20088;-52
2023/06/17 04:20:09;;;;;;;10.73;6.80;;;15.10;99.90;;;;;;5006926;28;20050;-52
2023/06/17 04:22:40;;;;;;;11.13;7.53;;;15.10;99.90;;;;;;5007167;28;20133;-52
2023/06/17 04:25:08;;;;;;;15.52;9.15;;;15.20;99.90;;;;;;5006936;28;20064;-52
2023/06/17 04:27:36;;;;;;;13.05;7.55;;;15.20;99.90;;;;;;5007327;28;20049;-53
2023/06/17 04:30:05;;;;;;;11.07;7.43;;;15.30;99.90;;;;;;5006712;28;20049;-53
2023/06/17 04:32:34;;;;;;;11.68;6.80;;;15.30;99.90;;;;;;5004791;28;20042;-53
2023/06/17 04:35:04;;;;;;;9.82;6.65;;;15.30;99.90;;;;;;5006832;28;20054;-55
2023/06/17 04:37:32;;;;;;;10.20;6.60;;;15.30;99.90;;;;;;5007257;28;20057;-53
2023/06/17 04:39:59;;;;;;;7.82;6.82;;;15.20;99.90;;;;;;5005938;28;20057;-53
2023/06/17 04:42:33;;;;;;;9.55;6.35;;;15.10;99.90;;;;;;5009230;28;20045;-54
2023/06/17 04:45:01;;;;;;;9.50;6.75;;;15.20;99.90;;;;;;5009224;28;20046;-52
2023/06/17 04:47:29;;;;;;;12.40;7.30;;;15.20;99.90;;;;;;5010969;28;20046;-54
2023/06/17 04:49:56;;;;;;;11.80;7.13;;;15.30;99.90;;;;;;5010002;28;20069;-50
2023/06/17 04:52:24;;;;;;;13.35;8.02;;;15.30;99.90;;;;;;5009521;28;20065;-53
2023/06/17 04:54:51;;;;;;;12.15;7.22;;;15.50;99.90;;;;;;5009032;28;20058;-52
2023/06/17 04:57:18;;;;;;;10.68;6.10;;;15.70;99.90;;;;;;5002777;28;20046;-52
2023/06/17 04:59:45;;;;;;;10.32;6.25;;;15.80;99.90;;;;;;4995084;28;20045;-52
2023/06/17 05:02:13;;;;;;;10.63;6.82;;;15.90;99.90;;;;;;5009920;28;20057;-52
2023/06/17 05:04:40;;;;;;;10.15;6.82;;;15.90;99.90;;;;;;5009182;28;20496;-54
2023/06/17 05:07:07;;;;;;;11.95;7.90;;;16.00;99.90;;;;;;5010306;28;20046;-54
2023/06/17 05:09:34;;;;;;;9.90;7.30;;;16.00;99.90;;;;;;5010205;28;20046;-55
2023/06/17 05:12:00;;;;;;;9.95;6.53;;;16.00;99.90;;;;;;5009501;28;20042;-53
2023/06/17 05:14:27;;;;;;;11.85;7.38;;;16.00;99.90;;;;;;5010330;28;20049;-55
2023/06/17 05:16:54;;;;;;;11.88;8.30;;;16.00;99.90;;;;;;5009920;28;20069;-53
2023/06/17 05:19:21;;;;;;;9.73;6.93;;;15.90;99.90;;;;;;5007278;28;20100;-51
2023/06/17 05:21:48;;;;;;;13.88;6.68;;;16.00;99.90;;;;;;5004420;28;20069;-53
2023/06/17 05:24:15;;;;;;;9.65;6.30;;;16.00;99.90;;;;;;5010043;28;20057;-56
2023/06/17 05:26:41;;;;;;;11.27;7.20;;;16.10;99.90;;;;;;5009692;28;20054;-53
2023/06/17 05:29:08;;;;;;;8.90;6.60;;;16.20;99.90;;;;;;5009506;28;20076;-54
2023/06/17 05:31:35;;;;;;;13.93;6.80;;;16.20;99.90;;;;;;5004980;28;20046;-50
2023/06/17 05:34:02;;;;;;;11.80;6.68;;;16.30;99.90;;;;;;5009323;28;20077;-54
2023/06/17 05:36:29;;;;;;;12.43;6.38;;;16.40;99.90;;;;;;5009533;28;20050;-51
2023/06/17 05:38:55;;;;;;;11.90;5.72;;;16.50;99.90;;;;;;5020305;28;20053;-55
2023/06/17 05:41:22;;;;;;;11.18;6.20;;;16.60;99.90;;;;;;5012782;28;20046;-53
2023/06/17 05:43:49;;;;;;;8.18;5.70;;;16.60;99.90;;;;;;5009477;28;20053;-55
2023/06/17 05:46:16;;;;;;;7.32;5.88;;;16.70;99.90;;;;;;5009394;28;20189;-55
2023/06/17 05:48:43;;;;;;;12.95;5.90;;;16.70;99.90;;;;;;5009913;28;20108;-54
2023/06/17 05:51:10;;;;;;;9.80;5.78;;;16.80;99.90;;;;;;5008886;28;20125;-56
2023/06/17 05:53:36;;;;;;;11.95;6.80;;;16.80;99.90;;;;;;5008709;28;20053;-53
2023/06/17 05:56:07;;;;;;;23.38;7.07;;;16.80;99.90;;;;;;4993688;28;20493;-54
2023/06/17 05:58:33;;;;;;;11.60;6.55;;;16.90;99.90;;;;;;4997823;28;20061;-55
2023/06/17 06:01:00;;;;;;;71.40;10.40;;;17.00;99.90;;;;;;5006202;28;20503;-50
2023/06/17 06:03:27;;;;;;;10.90;5.45;;;17.00;99.90;;;;;;5008841;28;20050;-53
2023/06/17 06:05:54;;;;;;;10.02;6.57;;;17.00;99.90;;;;;;5006630;28;20077;-51
2023/06/17 06:08:21;;;;;;;15.82;5.72;;;17.10;99.90;;;;;;5014283;28;20050;-53
2023/06/17 06:10:48;;;;;;;10.98;6.38;;;17.10;99.90;;;;;;5008870;28;20053;-52
2023/06/17 06:13:15;;;;;;;15.05;5.13;;;17.20;99.90;;;;;;5008496;28;20130;-51
2023/06/17 06:15:41;;;;;;;8.13;5.15;;;17.20;99.90;;;;;;5006324;28;20061;-53
2023/06/17 06:18:08;;;;;;;9.20;5.53;;;17.20;99.90;;;;;;5008269;28;20070;-54
2023/06/17 06:20:35;;;;;;;7.55;5.60;;;17.10;99.90;;;;;;5006280;28;20208;-55
2023/06/17 06:23:02;;;;;;;7.72;5.68;;;17.10;99.90;;;;;;5008252;28;20060;-53
2023/06/17 06:25:29;;;;;;;12.55;5.07;;;17.10;99.90;;;;;;5009002;28;20046;-51
2023/06/17 06:27:56;;;;;;;6.63;5.03;;;17.10;99.90;;;;;;5005707;28;20045;-51
2023/06/17 06:30:23;;;;;;;34.25;5.82;;;17.10;99.90;;;;;;5008504;28;20457;-49
2023/06/17 06:32:50;;;;;;;9.88;5.68;;;17.20;99.90;;;;;;5008198;28;21413;-55
2023/06/17 06:35:16;;;;;;;6.85;5.05;;;17.20;99.90;;;;;;5008859;28;20517;-54
2023/06/17 06:37:43;;;;;;;10.00;5.97;;;17.20;99.90;;;;;;5008769;28;20468;-55
2023/06/17 06:40:10;;;;;;;11.13;6.10;;;17.30;99.90;;;;;;5006080;28;20054;-53
2023/06/17 06:42:37;;;;;;;19.42;6.00;;;17.40;99.90;;;;;;5008523;28;20077;-54
2023/06/17 06:45:04;;;;;;;15.05;5.63;;;17.40;99.90;;;;;;5008159;28;20057;-54
2023/06/17 06:47:31;;;;;;;14.52;5.07;;;17.50;99.90;;;;;;5008831;28;20056;-54
2023/06/17 06:49:58;;;;;;;19.65;5.43;;;17.50;99.90;;;;;;5008427;28;20069;-55
2023/06/17 06:52:25;;;;;;;18.08;6.38;;;17.50;99.90;;;;;;5008353;28;20092;-54
2023/06/17 06:54:52;;;;;;;12.60;5.55;;;17.60;99.90;;;;;;5007882;28;20054;-54
2023/06/17 06:57:19;;;;;;;15.77;4.95;;;17.70;99.90;;;;;;5008034;28;20046;-53
2023/06/17 06:59:46;;;;;;;11.27;4.88;;;17.80;99.90;;;;;;5007669;28;20060;-52
2023/06/17 07:02:16;;;;;;;11.73;5.68;;;17.90;99.90;;;;;;5005718;28;20050;-52
2023/06/17 07:04:43;;;;;;;6.80;4.88;;;17.90;99.90;;;;;;5007120;28;20052;-53
2023/06/17 07:07:10;;;;;;;5.95;4.25;;;18.10;99.90;;;;;;5005010;28;20511;-51
2023/06/17 07:09:38;;;;;;;17.83;5.63;;;18.20;99.90;;;;;;5005392;28;20535;-52
2023/06/17 07:12:06;;;;;;;6.72;4.45;;;18.30;99.90;;;;;;5007784;28;20053;-53
2023/06/17 07:14:34;;;;;;;13.95;4.05;;;18.40;99.90;;;;;;5006077;28;20062;-54
2023/06/17 07:17:01;;;;;;;33.67;5.75;;;18.60;99.90;;;;;;5008132;28;20140;-53
2023/06/17 07:19:28;;;;;;;13.95;5.22;;;18.60;99.90;;;;;;5002600;28;20576;-54
2023/06/17 07:21:55;;;;;;;13.52;4.78;;;18.70;99.90;;;;;;5007726;28;20172;-54
2023/06/17 07:24:21;;;;;;;12.68;3.75;;;18.80;99.90;;;;;;5006767;28;20060;-56
2023/06/17 07:26:48;;;;;;;9.78;4.18;;;18.90;99.90;;;;;;4663510;28;10000915;-54
2023/06/17 07:29:15;;;;;;;8.90;4.93;;;19.00;99.90;;;;;;5004434;28;20142;-54
2023/06/17 07:31:42;;;;;;;6.70;3.97;;;19.10;99.90;;;;;;5004331;28;20058;-53
2023/06/17 07:34:09;;;;;;;7.25;3.83;;;19.20;99.90;;;;;;5004198;28;20092;-55
2023/06/17 07:36:36;;;;;;;11.77;4.80;;;19.20;99.90;;;;;;5004432;28;20108;-53
2023/06/17 07:39:03;;;;;;;7.53;4.28;;;19.30;99.90;;;;;;4992170;28;20046;-51
2023/06/17 07:41:30;;;;;;;8.43;4.22;;;19.30;99.90;;;;;;5004188;28;20050;-54
2023/06/17 07:43:57;;;;;;;7.05;3.65;;;19.40;99.90;;;;;;5009373;28;20069;-56
2023/06/17 07:46:25;;;;;;;7.35;3.67;;;19.50;99.90;;;;;;5011124;28;20147;-56
2023/06/17 07:48:52;;;;;;;7.38;3.38;;;19.60;99.90;;;;;;5004142;28;20054;-57
2023/06/17 07:51:19;;;;;;;16.90;4.40;;;19.60;99.90;;;;;;4995309;28;20057;-49
2023/06/17 07:53:46;;;;;;;10.75;5.13;;;19.80;99.90;;;;;;5012406;28;20049;-53
2023/06/17 07:56:13;;;;;;;20.10;4.40;;;19.80;99.90;;;;;;5011347;28;20046;-54
2023/06/17 07:58:41;;;;;;;9.60;4.22;;;19.90;99.90;;;;;;5010108;28;20355;-51
2023/06/17 08:01:08;;;;;;;9.40;3.40;;;20.00;99.90;;;;;;5004123;28;20042;-52
2023/06/17 08:03:34;;;;;;;8.60;3.60;;;20.10;99.90;;;;;;5001881;28;20054;-56
2023/06/17 08:06:01;;;;;;;9.80;3.97;;;20.00;99.90;;;;;;4998514;28;20061;-53
2023/06/17 08:08:28;;;;;;;9.95;3.10;;;20.10;99.90;;;;;;5004307;28;20112;-51
2023/06/17 08:10:56;;;;;;;8.40;3.53;;;20.20;99.90;;;;;;5002551;28;20045;-53
2023/06/17 08:13:22;;;;;;;10.65;3.95;;;20.30;99.90;;;;;;5003720;28;20361;-50
2023/06/17 08:15:51;;;;;;;10.85;4.20;;;20.40;99.90;;;;;;5003542;28;20042;-49
2023/06/17 08:18:18;;;;;;;5.70;3.60;;;20.60;99.90;;;;;;5007533;28;20056;-53
2023/06/17 08:20:45;;;;;;;11.98;4.03;;;20.70;99.90;;;;;;5007186;28;20050;-50
2023/06/17 08:23:12;;;;;;;10.00;4.00;;;20.70;99.90;;;;;;4996843;28;20049;-49
2023/06/17 08:25:39;;;;;;;11.88;3.55;;;20.80;99.90;;;;;;5004923;28;20041;-54
2023/06/17 08:28:06;;;;;;;14.35;4.55;;;20.80;99.90;;;;;;5006694;28;20149;-55
2023/06/17 08:30:33;;;;;;;9.15;3.92;;;20.90;99.90;;;;;;5007475;28;20050;-53
2023/06/17 08:33:00;;;;;;;6.55;3.97;;;21.00;99.90;;;;;;5007180;28;20046;-50
2023/06/17 08:35:26;;;;;;;14.48;3.78;;;21.00;99.90;;;;;;5007648;28;20049;-53
2023/06/17 08:37:53;;;;;;;8.75;3.55;;;20.90;99.90;;;;;;5007484;28;20050;-50
2023/06/17 08:40:21;;;;;;;13.30;4.22;;;21.00;99.90;;;;;;5004612;28;20054;-53
2023/06/17 08:42:52;;;;;;;12.10;3.63;;;20.90;99.90;;;;;;4994970;28;20046;-54
2023/06/17 08:45:19;;;;;;;6.00;3.15;;;21.00;99.90;;;;;;4991503;28;20062;-51
2023/06/17 08:47:45;;;;;;;8.60;3.50;;;21.00;99.90;;;;;;4994981;28;20073;-52
2023/06/17 08:50:12;;;;;;;6.68;3.97;;;21.10;99.90;;;;;;4995892;28;20060;-53
2023/06/17 08:52:39;;;;;;;7.05;2.92;;;21.10;99.90;;;;;;4998309;28;20049;-54
2023/06/17 08:55:07;;;;;;;12.40;4.05;;;21.20;99.90;;;;;;5007546;28;20057;-53
2023/06/17 08:57:34;;;;;;;10.80;4.00;;;21.30;99.90;;;;;;5007025;28;20132;-53
2023/06/17 09:00:00;;;;;;;14.27;3.60;;;21.40;99.90;;;;;;5007187;28;20046;-53
2023/06/17 09:02:27;;;;;;;11.07;3.90;;;21.50;99.90;;;;;;5005857;28;20054;-56
2023/06/17 09:04:54;;;;;;;8.25;3.55;;;21.60;99.90;;;;;;5005775;28;20108;-55
2023/06/17 09:07:21;;;;;;;14.00;3.83;;;21.60;99.90;;;;;;5006854;28;20045;-52
2023/06/17 09:09:55;;;;;;;8.70;3.60;;;21.70;99.90;;;;;;5007037;28;20460;-52
2023/06/17 09:12:24;;;;;;;15.88;4.18;;;21.80;99.90;;;;;;5006756;28;20058;-53
2023/06/17 09:14:54;;;;;;;8.45;3.95;;;22.00;99.90;;;;;;4997898;28;20050;-51
2023/06/17 09:17:31;;;;;;;9.75;4.03;;;22.00;99.90;;;;;;4993299;28;20493;-53
2023/06/17 09:20:11;;;;;;;10.27;3.88;;;22.00;99.90;;;;;;5006772;28;20054;-51
2023/06/17 09:22:40;;;;;;;10.50;4.55;;;22.10;99.90;;;;;;4990716;28;20532;-53
2023/06/17 09:25:11;;;;;;;11.05;4.07;;;22.20;99.90;;;;;;5004109;28;20548;-51
2023/06/17 09:28:04;;;;;;;9.95;3.78;;;22.30;99.90;;;;;;5006568;28;20460;-53
2023/06/17 09:30:43;;;;;;;12.73;5.25;;;22.50;99.90;;;;;;5005762;28;20068;-51
2023/06/17 09:33:18;;;;;;;10.13;4.43;;;22.60;99.90;;;;;;5006614;28;20422;-51
2023/06/17 09:35:45;;;;;;;15.27;5.05;;;22.70;99.90;;;;;;5006633;28;20054;-52
2023/06/17 09:38:13;;;;;;;16.67;4.70;;;22.70;99.90;;;;;;5004248;28;20046;-51
2023/06/17 09:40:40;;;;;;;11.48;4.38;;;22.80;99.90;;;;;;4973503;28;20588;-52
2023/06/17 09:43:06;;;;;;;15.60;5.57;;;22.80;99.90;;;;;;4989502;28;20159;-53
2023/06/17 09:45:59;;;;;;;10.80;5.63;;;22.80;99.90;;;;;;4992308;28;20058;-55
2023/06/17 09:48:37;;;;;;;9.32;5.18;;;22.80;99.90;;;;;;4992629;28;20132;-55
2023/06/17 09:51:09;;;;;;;8.93;5.30;;;22.70;99.90;;;;;;4997158;28;20053;-55
2023/06/17 09:53:36;;;;;;;10.25;4.72;;;22.50;99.90;;;;;;4996386;28;20585;-51
2023/06/17 09:56:04;;;;;;;22.35;5.95;;;22.50;99.90;;;;;;5005723;28;20124;-50
2023/06/17 09:58:31;;;;;;;12.60;5.05;;;22.50;99.90;;;;;;5003772;28;20489;-56
2023/06/17 10:01:00;;;;;;;14.90;5.20;;;22.60;99.90;;;;;;5006660;28;20227;-55
2023/06/17 10:03:27;;;;;;;20.00;6.35;;;22.50;99.90;;;;;;5004515;28;20046;-55
2023/06/17 10:06:03;;;;;;;12.02;5.30;;;22.60;99.90;;;;;;4997179;28;20058;-55
2023/06/17 10:08:30;;;;;;;11.45;4.72;;;22.60;99.90;;;;;;5017471;28;20666;-54
2023/06/17 10:10:59;;;;;;;21.80;6.80;;;22.70;99.90;;;;;;5012269;28;20042;-53
2023/06/17 10:13:27;;;;;;;11.30;5.80;;;22.80;99.90;;;;;;5011653;28;20053;-52
2023/06/17 10:15:54;;;;;;;12.75;5.53;;;22.90;99.90;;;;;;4997172;28;20045;-54
2023/06/17 10:18:21;;;;;;;19.80;6.63;;;22.80;99.50;;;;;;5013304;28;20042;-50
2023/06/17 10:20:48;;;;;;;12.10;5.75;;;22.80;99.50;;;;;;5012527;28;20054;-51
2023/06/17 10:23:15;;;;;;;21.17;6.88;;;22.90;99.60;;;;;;4997720;28;20172;-55
2023/06/17 10:25:42;;;;;;;13.70;5.95;;;23.10;99.70;;;;;;4996031;28;20049;-53
2023/06/17 10:28:09;;;;;;;16.92;5.55;;;23.30;99.50;;;;;;5014774;28;20057;-49
2023/06/17 10:30:37;;;;;;;10.77;6.22;;;23.50;99.20;;;;;;5008783;28;20061;-53
2023/06/17 10:33:04;;;;;;;17.15;5.57;;;23.70;98.70;;;;;;4995965;28;20132;-53
2023/06/17 10:35:44;;;;;;;16.73;5.22;;;23.90;98.40;;;;;;5014286;28;20096;-52
2023/06/17 10:38:37;;;;;;;12.65;6.00;;;24.10;97.50;;;;;;5013931;28;20136;-53
2023/06/17 10:41:04;;;;;;;17.58;7.72;;;24.20;96.00;;;;;;5006766;28;20038;-53
2023/06/17 10:43:37;;;;;;;25.30;8.10;;;24.20;96.50;;;;;;5014054;28;20049;-53
2023/06/17 10:46:04;;;;;;;22.70;5.57;;;24.20;95.30;;;;;;4998430;28;20058;-53
2023/06/17 10:48:34;;;;;;;14.05;6.05;;;24.40;96.30;;;;;;5004838;28;20667;-55
2023/06/17 10:51:02;;;;;;;13.27;5.57;;;24.60;95.90;;;;;;4998276;28;20132;-54
2023/06/17 10:53:32;;;;;;;17.13;6.75;;;24.70;95.50;;;;;;5014206;28;21386;-53
2023/06/17 10:56:00;;;;;;;9.05;5.30;;;24.80;94.40;;;;;;5008928;28;20515;-53
2023/06/17 10:58:31;;;;;;;13.00;5.30;;;24.80;95.00;;;;;;5013343;28;20496;-55
2023/06/17 11:01:05;;;;;;;12.98;5.72;;;24.90;94.60;;;;;;5010257;28;20045;-51
2023/06/17 11:03:32;;;;;;;12.18;5.40;;;25.00;94.80;;;;;;5003443;28;20652;-54
2023/06/17 11:06:10;;;;;;;20.75;5.97;;;25.00;94.20;;;;;;5004119;28;20042;-55
2023/06/17 11:08:37;;;;;;;13.98;5.55;;;25.10;93.60;;;;;;5004569;28;20324;-49
2023/06/17 11:11:13;;;;;;;17.38;6.97;;;25.00;93.70;;;;;;5003132;28;20401;-50
2023/06/17 11:13:43;;;;;;;9.88;5.30;;;24.90;92.90;;;;;;4998462;28;20058;-52
2023/06/17 11:16:10;;;;;;;13.40;5.85;;;24.90;93.50;;;;;;5003625;28;20065;-52
2023/06/17 11:18:38;;;;;;;14.32;5.78;;;24.80;92.70;;;;;;5003848;28;20485;-52
2023/06/17 11:21:09;;;;;;;8.48;6.28;;;24.80;92.70;;;;;;5003880;28;20062;-53
2023/06/17 11:23:38;;;;;;;14.50;5.80;;;24.80;92.50;;;;;;5004317;28;20054;-50
2023/06/17 11:26:07;;;;;;;8.75;4.90;;;24.70;92.70;;;;;;5003709;28;20054;-51
2023/06/17 11:28:35;;;;;;;13.82;5.68;;;24.70;92.60;;;;;;4977150;28;20547;-50
2023/06/17 11:31:02;;;;;;;12.27;5.70;;;24.80;92.90;;;;;;5004986;28;20675;-53
2023/06/17 11:33:30;;;;;;;14.77;5.22;;;24.80;92.70;;;;;;5004159;28;20444;-49
2023/06/17 11:35:57;;;;;;;11.48;6.10;;;24.80;92.80;;;;;;4995017;28;20132;-53
2023/06/17 11:38:24;;;;;;;7.40;5.18;;;24.80;92.50;;;;;;4993794;28;20056;-52
2023/06/17 11:40:55;;;;;;;11.48;5.68;;;24.80;93.00;;;;;;4975794;28;20475;-53
2023/06/17 11:43:26;;;;;;;15.77;5.03;;;24.90;92.40;;;;;;5003287;28;20123;-52
2023/06/17 11:45:55;;;;;;;12.27;5.28;;;25.00;92.90;;;;;;4992204;28;20050;-53
2023/06/17 11:48:28;;;;;;;12.52;5.45;;;25.10;92.60;;;;;;4995399;28;20050;-49
2023/06/17 11:50:56;;;;;;;13.05;5.68;;;25.10;92.00;;;;;;5013472;28;20064;-53
2023/06/17 11:53:37;;;;;;;12.82;5.68;;;25.00;92.30;;;;;;5018140;28;20053;-52
2023/06/17 11:56:07;;;;;;;11.65;6.28;;;25.00;92.30;;;;;;5019502;28;20058;-55
2023/06/17 11:58:37;;;;;;;12.45;4.82;;;25.00;92.30;;;;;;5015598;28;20571;-49
2023/06/17 12:01:05;;;;;;;23.50;6.45;;;25.10;92.60;;;;;;5012177;28;20096;-51
2023/06/17 12:03:32;;;;;;;9.95;5.65;;;25.20;92.40;;;;;;4997781;28;20725;-54
2023/06/17 12:05:59;;;;;;;13.07;5.45;;;25.10;92.20;;;;;;5011481;28;20085;-51
2023/06/17 12:08:36;;;;;;;15.30;6.22;;;25.10;92.40;;;;;;5003307;28;20103;-52
2023/06/17 12:11:07;;;;;;;11.60;6.68;;;25.10;92.60;;;;;;5015761;28;20128;-53
2023/06/17 12:13:40;;;;;;;17.25;5.97;;;25.20;92.60;;;;;;5012996;28;20141;-50
2023/06/17 12:16:11;;;;;;;12.35;5.18;;;25.10;92.40;;;;;;5011270;28;20052;-49
2023/06/17 12:18:45;;;;;;;16.25;5.75;;;25.20;92.70;;;;;;5019069;28;20176;-51
2023/06/17 12:21:12;;;;;;;15.27;5.38;;;25.30;92.60;;;;;;4999760;28;20053;-53
2023/06/17 12:23:39;;;;;;;9.98;5.90;;;25.50;92.50;;;;;;5024900;28;20060;-55
2023/06/17 12:26:06;;;;;;;13.10;6.35;;;25.60;91.70;;;;;;5015559;28;20064;-54
2023/06/17 12:28:33;;;;;;;9.95;5.53;;;25.70;91.70;;;;;;5010110;28;20038;-54
2023/06/17 12:31:00;;;;;;;19.52;6.68;;;25.70;91.80;;;;;;5015443;28;20049;-53
2023/06/17 12:33:26;;;;;;;12.45;7.07;;;25.70;91.30;;;;;;5019822;28;20492;-52
2023/06/17 12:35:53;;;;;;;12.02;7.40;;;25.70;91.00;;;;;;5014494;28;20485;-49
2023/06/17 12:38:21;;;;;;;16.80;6.13;;;25.70;90.90;;;;;;5018894;28;20045;-55
2023/06/17 12:40:48;;;;;;;14.95;6.18;;;25.80;90.70;;;;;;4997654;28;20038;-52